sensor_id;sensor_type;location;lat;lon;timestamp;temperature;humidity
40848;DHT22;26570;50.962;5.340;2022-09-27T00:00:08;11.60;99.90
40848;DHT22;26570;50.962;5.340;2022-09-27T00:02:58;11.50;99.90
40848;DHT22;26570;50.962;5.340;2022-09-27T00:05:44;11.60;99.90
40848;DHT22;26570;50.962;5.340;2022-09-27T00:08:33;11.50;99.90
40848;DHT22;26570;50.962;5.340;2022-09-27T00:14:34;11.40;99.90
40848;DHT22;26570;50.962;5.340;2022-09-27T00:17:20;11.60;99.90
40848;DHT22;26570;50.962;5.340;2022-09-27T00:20:07;11.70;99.90
40848;DHT22;26570;50.962;5.340;2022-09-27T00:22:56;11.60;99.90
40848;DHT22;26570;50.962;5.340;2022-09-27T00:25:53;11.40;99.90
40848;DHT22;26570;50.962;5.340;2022-09-27T00:28:39;11.40;99.90
40848;DHT22;26570;50.962;5.340;2022-09-27T00:31:29;11.30;99.90
40848;DHT22;26570;50.962;5.340;2022-09-27T00:34:20;11.40;99.90
40848;DHT22;26570;50.962;5.340;2022-09-27T00:37:08;11.50;99.90
40848;DHT22;26570;50.962;5.340;2022-09-27T00:39:55;11.50;99.90
40848;DHT22;26570;50.962;5.340;2022-09-27T00:42:41;11.40;99.90
40848;DHT22;26570;50.962;5.340;2022-09-27T00:45:27;11.30;99.90
40848;DHT22;26570;50.962;5.340;2022-09-27T00:48:16;11.20;99.90
40848;DHT22;26570;50.962;5.340;2022-09-27T00:51:05;11.30;99.90
40848;DHT22;26570;50.962;5.340;2022-09-27T00:53:54;11.20;99.90
40848;DHT22;26570;50.962;5.340;2022-09-27T00:56:43;11.00;99.90
40848;DHT22;26570;50.962;5.340;2022-09-27T00:59:37;11.00;99.90
40848;DHT22;26570;50.962;5.340;2022-09-27T01:02:24;11.10;99.90
40848;DHT22;26570;50.962;5.340;2022-09-27T01:05:14;11.20;99.90
40848;DHT22;26570;50.962;5.340;2022-09-27T01:08:02;11.10;99.90
40848;DHT22;26570;50.962;5.340;2022-09-27T01:10:59;11.00;99.90
40848;DHT22;26570;50.962;5.340;2022-09-27T01:43:05;11.30;99.90
40848;DHT22;26570;50.962;5.340;2022-09-27T01:46:00;11.10;99.90
40848;DHT22;26570;50.962;5.340;2022-09-27T01:48:48;11.10;99.90
40848;DHT22;26570;50.962;5.340;2022-09-27T01:51:47;11.00;99.90
40848;DHT22;26570;50.962;5.340;2022-09-27T01:54:41;11.10;99.90
40848;DHT22;26570;50.962;5.340;2022-09-27T01:57:34;11.10;99.90
40848;DHT22;26570;50.962;5.340;2022-09-27T02:00:22;11.00;99.90
40848;DHT22;26570;50.962;5.340;2022-09-27T02:03:25;11.00;99.90
40848;DHT22;26570;50.962;5.340;2022-09-27T02:06:19;11.00;99.90
40848;DHT22;26570;50.962;5.340;2022-09-27T02:09:26;10.60;99.90
40848;DHT22;26570;50.962;5.340;2022-09-27T02:12:26;10.80;99.90
40848;DHT22;26570;50.962;5.340;2022-09-27T02:15:15;10.80;99.90
40848;DHT22;26570;50.962;5.340;2022-09-27T02:18:09;10.60;99.90
40848;DHT22;26570;50.962;5.340;2022-09-27T02:20:59;10.60;99.90
40848;DHT22;26570;50.962;5.340;2022-09-27T02:23:51;10.60;99.90
40848;DHT22;26570;50.962;5.340;2022-09-27T02:26:42;10.60;99.90
40848;DHT22;26570;50.962;5.340;2022-09-27T02:29:41;10.80;99.90
40848;DHT22;26570;50.962;5.340;2022-09-27T02:32:31;10.90;99.90
40848;DHT22;26570;50.962;5.340;2022-09-27T02:35:18;10.90;99.90
40848;DHT22;26570;50.962;5.340;2022-09-27T02:38:06;10.80;99.90
40848;DHT22;26570;50.962;5.340;2022-09-27T02:40:53;10.80;99.90
40848;DHT22;26570;50.962;5.340;2022-09-27T02:43:40;10.80;99.90
40848;DHT22;26570;50.962;5.340;2022-09-27T02:46:55;10.70;99.90
40848;DHT22;26570;50.962;5.340;2022-09-27T02:56:33;10.90;99.90
40848;DHT22;26570;50.962;5.340;2022-09-27T03:05:24;10.60;99.90
40848;DHT22;26570;50.962;5.340;2022-09-27T03:08:12;10.70;99.90
40848;DHT22;26570;50.962;5.340;2022-09-27T03:10:59;10.70;99.90
40848;DHT22;26570;50.962;5.340;2022-09-27T03:13:45;10.70;99.90
40848;DHT22;26570;50.962;5.340;2022-09-27T03:16:31;10.80;99.90
40848;DHT22;26570;50.962;5.340;2022-09-27T03:19:17;10.70;99.90
40848;DHT22;26570;50.962;5.340;2022-09-27T03:22:03;10.70;99.90
40848;DHT22;26570;50.962;5.340;2022-09-27T03:24:50;10.70;99.90
40848;DHT22;26570;50.962;5.340;2022-09-27T03:27:36;10.70;99.90
40848;DHT22;26570;50.962;5.340;2022-09-27T03:30:22;10.80;99.90
40848;DHT22;26570;50.962;5.340;2022-09-27T03:33:08;10.80;99.90
40848;DHT22;26570;50.962;5.340;2022-09-27T03:35:54;10.80;99.90
40848;DHT22;26570;50.962;5.340;2022-09-27T03:38:40;10.80;99.90
40848;DHT22;26570;50.962;5.340;2022-09-27T03:41:26;10.90;99.90
40848;DHT22;26570;50.962;5.340;2022-09-27T03:44:11;10.80;99.90
40848;DHT22;26570;50.962;5.340;2022-09-27T03:46:58;10.90;99.90
40848;DHT22;26570;50.962;5.340;2022-09-27T03:49:45;10.80;99.90
40848;DHT22;26570;50.962;5.340;2022-09-27T03:52:31;10.80;99.90
40848;DHT22;26570;50.962;5.340;2022-09-27T03:55:17;10.80;99.90
40848;DHT22;26570;50.962;5.340;2022-09-27T03:58:03;10.70;99.90
40848;DHT22;26570;50.962;5.340;2022-09-27T04:00:49;10.90;99.90
40848;DHT22;26570;50.962;5.340;2022-09-27T04:03:35;10.90;99.90
40848;DHT22;26570;50.962;5.340;2022-09-27T04:06:22;10.90;99.90
40848;DHT22;26570;50.962;5.340;2022-09-27T04:09:08;10.90;99.90
40848;DHT22;26570;50.962;5.340;2022-09-27T04:11:54;10.80;99.90
40848;DHT22;26570;50.962;5.340;2022-09-27T04:14:40;10.80;99.90
40848;DHT22;26570;50.962;5.340;2022-09-27T04:17:27;10.80;99.90
40848;DHT22;26570;50.962;5.340;2022-09-27T04:20:15;10.80;99.90
40848;DHT22;26570;50.962;5.340;2022-09-27T04:23:01;10.80;99.90
40848;DHT22;26570;50.962;5.340;2022-09-27T04:25:47;10.90;99.90
40848;DHT22;26570;50.962;5.340;2022-09-27T04:28:34;11.00;99.90
40848;DHT22;26570;50.962;5.340;2022-09-27T04:31:21;10.80;99.90
40848;DHT22;26570;50.962;5.340;2022-09-27T04:34:07;10.80;99.90
40848;DHT22;26570;50.962;5.340;2022-09-27T04:36:54;10.80;99.90
40848;DHT22;26570;50.962;5.340;2022-09-27T04:39:40;10.70;99.90
40848;DHT22;26570;50.962;5.340;2022-09-27T04:42:26;10.50;99.90
40848;DHT22;26570;50.962;5.340;2022-09-27T04:45:12;10.60;99.90
40848;DHT22;26570;50.962;5.340;2022-09-27T04:47:59;10.60;99.90
40848;DHT22;26570;50.962;5.340;2022-09-27T04:50:46;10.50;99.90
40848;DHT22;26570;50.962;5.340;2022-09-27T04:53:32;10.60;99.90
40848;DHT22;26570;50.962;5.340;2022-09-27T04:56:18;10.50;99.90
40848;DHT22;26570;50.962;5.340;2022-09-27T04:59:04;10.70;99.90
40848;DHT22;26570;50.962;5.340;2022-09-27T05:01:50;10.50;99.90
40848;DHT22;26570;50.962;5.340;2022-09-27T05:04:36;10.30;99.90
40848;DHT22;26570;50.962;5.340;2022-09-27T05:07:22;10.40;99.90
40848;DHT22;26570;50.962;5.340;2022-09-27T05:10:08;10.50;99.90
40848;DHT22;26570;50.962;5.340;2022-09-27T05:12:54;10.40;99.90
40848;DHT22;26570;50.962;5.340;2022-09-27T05:15:40;10.40;99.90
40848;DHT22;26570;50.962;5.340;2022-09-27T05:18:26;10.50;99.90
40848;DHT22;26570;50.962;5.340;2022-09-27T05:21:12;10.40;99.90
40848;DHT22;26570;50.962;5.340;2022-09-27T05:23:58;10.50;99.90
40848;DHT22;26570;50.962;5.340;2022-09-27T05:26:44;10.40;99.90
40848;DHT22;26570;50.962;5.340;2022-09-27T05:29:30;10.30;99.90
40848;DHT22;26570;50.962;5.340;2022-09-27T05:32:16;10.30;99.90
40848;DHT22;26570;50.962;5.340;2022-09-27T05:35:03;10.50;99.90
40848;DHT22;26570;50.962;5.340;2022-09-27T05:37:57;10.40;99.90
40848;DHT22;26570;50.962;5.340;2022-09-27T05:40:45;10.40;99.90
40848;DHT22;26570;50.962;5.340;2022-09-27T05:43:34;10.40;99.90
40848;DHT22;26570;50.962;5.340;2022-09-27T05:46:20;10.40;99.90
40848;DHT22;26570;50.962;5.340;2022-09-27T05:49:06;10.40;99.90
40848;DHT22;26570;50.962;5.340;2022-09-27T05:51:54;10.40;99.90
40848;DHT22;26570;50.962;5.340;2022-09-27T05:54:40;10.40;99.90
40848;DHT22;26570;50.962;5.340;2022-09-27T05:57:26;10.50;99.90
40848;DHT22;26570;50.962;5.340;2022-09-27T06:00:12;10.50;99.90
40848;DHT22;26570;50.962;5.340;2022-09-27T06:03:00;10.50;99.90
40848;DHT22;26570;50.962;5.340;2022-09-27T06:05:46;10.40;99.90
40848;DHT22;26570;50.962;5.340;2022-09-27T06:08:34;10.30;99.90
40848;DHT22;26570;50.962;5.340;2022-09-27T06:11:20;10.30;99.90
40848;DHT22;26570;50.962;5.340;2022-09-27T06:14:06;10.40;99.90
40848;DHT22;26570;50.962;5.340;2022-09-27T06:16:52;10.40;99.90
40848;DHT22;26570;50.962;5.340;2022-09-27T06:19:39;10.30;99.90
40848;DHT22;26570;50.962;5.340;2022-09-27T06:22:26;10.40;99.90
40848;DHT22;26570;50.962;5.340;2022-09-27T06:25:13;10.60;99.90
40848;DHT22;26570;50.962;5.340;2022-09-27T06:28:00;10.60;99.90
40848;DHT22;26570;50.962;5.340;2022-09-27T06:30:48;10.70;99.90
40848;DHT22;26570;50.962;5.340;2022-09-27T06:33:34;10.70;99.90
40848;DHT22;26570;50.962;5.340;2022-09-27T06:36:20;10.80;99.90
40848;DHT22;26570;50.962;5.340;2022-09-27T06:39:07;10.90;99.90
40848;DHT22;26570;50.962;5.340;2022-09-27T06:41:54;10.80;99.90
40848;DHT22;26570;50.962;5.340;2022-09-27T06:44:42;11.00;99.90
40848;DHT22;26570;50.962;5.340;2022-09-27T06:47:28;10.90;99.90
40848;DHT22;26570;50.962;5.340;2022-09-27T06:50:13;10.90;99.90
40848;DHT22;26570;50.962;5.340;2022-09-27T06:52:59;10.90;99.90
40848;DHT22;26570;50.962;5.340;2022-09-27T06:55:44;11.00;99.90
40848;DHT22;26570;50.962;5.340;2022-09-27T06:58:29;11.10;99.90
40848;DHT22;26570;50.962;5.340;2022-09-27T07:01:34;11.00;99.90
40848;DHT22;26570;50.962;5.340;2022-09-27T07:04:20;11.10;99.90
40848;DHT22;26570;50.962;5.340;2022-09-27T07:07:20;11.30;99.90
40848;DHT22;26570;50.962;5.340;2022-09-27T07:10:10;11.50;99.90
40848;DHT22;26570;50.962;5.340;2022-09-27T07:12:56;11.50;99.90
40848;DHT22;26570;50.962;5.340;2022-09-27T07:15:42;11.70;99.90
40848;DHT22;26570;50.962;5.340;2022-09-27T07:18:27;12.10;99.90
40848;DHT22;26570;50.962;5.340;2022-09-27T07:21:12;12.50;99.90
40848;DHT22;26570;50.962;5.340;2022-09-27T07:24:09;12.50;99.90
40848;DHT22;26570;50.962;5.340;2022-09-27T07:26:54;12.50;99.90
40848;DHT22;26570;50.962;5.340;2022-09-27T07:29:39;12.40;99.90
40848;DHT22;26570;50.962;5.340;2022-09-27T07:32:24;12.00;99.90
40848;DHT22;26570;50.962;5.340;2022-09-27T07:35:10;12.00;99.90
40848;DHT22;26570;50.962;5.340;2022-09-27T07:37:57;12.00;99.90
40848;DHT22;26570;50.962;5.340;2022-09-27T07:40:43;11.90;99.90
40848;DHT22;26570;50.962;5.340;2022-09-27T07:43:28;12.00;99.90
40848;DHT22;26570;50.962;5.340;2022-09-27T07:46:13;11.80;99.90
40848;DHT22;26570;50.962;5.340;2022-09-27T07:48:58;11.70;99.90
40848;DHT22;26570;50.962;5.340;2022-09-27T07:51:43;11.80;99.90
40848;DHT22;26570;50.962;5.340;2022-09-27T07:54:28;11.60;99.90
40848;DHT22;26570;50.962;5.340;2022-09-27T07:57:14;11.80;99.90
40848;DHT22;26570;50.962;5.340;2022-09-27T07:59:59;11.90;99.90
40848;DHT22;26570;50.962;5.340;2022-09-27T08:02:44;11.90;99.90
40848;DHT22;26570;50.962;5.340;2022-09-27T08:05:30;12.00;99.90
40848;DHT22;26570;50.962;5.340;2022-09-27T08:08:15;11.90;99.90
40848;DHT22;26570;50.962;5.340;2022-09-27T08:11:13;11.90;99.90
40848;DHT22;26570;50.962;5.340;2022-09-27T08:13:58;11.70;99.90
40848;DHT22;26570;50.962;5.340;2022-09-27T08:16:44;11.70;99.90
40848;DHT22;26570;50.962;5.340;2022-09-27T08:19:29;11.50;99.90
40848;DHT22;26570;50.962;5.340;2022-09-27T08:22:15;11.60;99.90
40848;DHT22;26570;50.962;5.340;2022-09-27T08:25:00;11.50;99.90
40848;DHT22;26570;50.962;5.340;2022-09-27T08:27:56;11.70;99.90
40848;DHT22;26570;50.962;5.340;2022-09-27T08:30:41;11.90;99.90
40848;DHT22;26570;50.962;5.340;2022-09-27T08:33:27;11.90;99.90
40848;DHT22;26570;50.962;5.340;2022-09-27T08:36:13;12.10;99.90
40848;DHT22;26570;50.962;5.340;2022-09-27T08:38:58;12.30;99.90
40848;DHT22;26570;50.962;5.340;2022-09-27T08:45:10;12.10;99.90
40848;DHT22;26570;50.962;5.340;2022-09-27T08:48:04;12.00;99.90
40848;DHT22;26570;50.962;5.340;2022-09-27T08:50:50;12.00;99.90
40848;DHT22;26570;50.962;5.340;2022-09-27T08:53:56;12.20;99.90
40848;DHT22;26570;50.962;5.340;2022-09-27T08:56:47;12.30;99.90
40848;DHT22;26570;50.962;5.340;2022-09-27T08:59:38;12.30;99.90
40848;DHT22;26570;50.962;5.340;2022-09-27T09:02:24;12.30;99.90
40848;DHT22;26570;50.962;5.340;2022-09-27T09:08:29;12.60;99.90
40848;DHT22;26570;50.962;5.340;2022-09-27T09:21:51;12.70;99.90
40848;DHT22;26570;50.962;5.340;2022-09-27T09:31:32;12.40;99.90
40848;DHT22;26570;50.962;5.340;2022-09-27T09:34:34;12.50;99.90
40848;DHT22;26570;50.962;5.340;2022-09-27T09:38:00;12.40;99.90
40848;DHT22;26570;50.962;5.340;2022-09-27T09:41:24;12.40;99.90
40848;DHT22;26570;50.962;5.340;2022-09-27T09:50:51;13.10;99.90
40848;DHT22;26570;50.962;5.340;2022-09-27T09:53:48;13.30;99.90
40848;DHT22;26570;50.962;5.340;2022-09-27T09:56:49;13.60;99.90
40848;DHT22;26570;50.962;5.340;2022-09-27T10:00:00;13.50;99.90
40848;DHT22;26570;50.962;5.340;2022-09-27T10:02:53;13.20;99.90
40848;DHT22;26570;50.962;5.340;2022-09-27T10:05:43;13.00;99.90
40848;DHT22;26570;50.962;5.340;2022-09-27T10:08:38;12.80;99.90
40848;DHT22;26570;50.962;5.340;2022-09-27T10:11:51;12.80;99.90
40848;DHT22;26570;50.962;5.340;2022-09-27T10:14:49;13.00;99.90
40848;DHT22;26570;50.962;5.340;2022-09-27T10:17:40;13.10;99.90
40848;DHT22;26570;50.962;5.340;2022-09-27T10:21:23;13.20;99.90
40848;DHT22;26570;50.962;5.340;2022-09-27T10:26:48;13.20;99.90
40848;DHT22;26570;50.962;5.340;2022-09-27T10:29:38;13.10;99.90
40848;DHT22;26570;50.962;5.340;2022-09-27T10:32:32;13.10;99.90
40848;DHT22;26570;50.962;5.340;2022-09-27T10:35:41;13.10;99.90
40848;DHT22;26570;50.962;5.340;2022-09-27T10:38:28;13.00;99.90
40848;DHT22;26570;50.962;5.340;2022-09-27T10:41:34;13.10;99.90
40848;DHT22;26570;50.962;5.340;2022-09-27T10:44:31;12.80;99.90
40848;DHT22;26570;50.962;5.340;2022-09-27T10:47:19;12.90;99.90
40848;DHT22;26570;50.962;5.340;2022-09-27T10:50:16;12.90;99.90
40848;DHT22;26570;50.962;5.340;2022-09-27T10:53:10;13.00;99.90
40848;DHT22;26570;50.962;5.340;2022-09-27T10:55:56;12.80;99.90
40848;DHT22;26570;50.962;5.340;2022-09-27T10:58:44;12.80;99.90
40848;DHT22;26570;50.962;5.340;2022-09-27T11:01:42;12.80;99.90
40848;DHT22;26570;50.962;5.340;2022-09-27T11:04:32;12.70;99.90
40848;DHT22;26570;50.962;5.340;2022-09-27T11:07:18;12.50;99.90
40848;DHT22;26570;50.962;5.340;2022-09-27T11:10:30;12.50;99.90
40848;DHT22;26570;50.962;5.340;2022-09-27T11:13:25;12.50;99.90
40848;DHT22;26570;50.962;5.340;2022-09-27T11:16:31;12.30;99.90
40848;DHT22;26570;50.962;5.340;2022-09-27T11:25:58;12.20;99.90
40848;DHT22;26570;50.962;5.340;2022-09-27T11:29:02;12.40;99.90
40848;DHT22;26570;50.962;5.340;2022-09-27T11:31:57;12.50;99.90
40848;DHT22;26570;50.962;5.340;2022-09-27T11:42:02;12.80;99.90
40848;DHT22;26570;50.962;5.340;2022-09-27T11:44:53;13.10;99.90
40848;DHT22;26570;50.962;5.340;2022-09-27T11:51:20;13.90;99.90
40848;DHT22;26570;50.962;5.340;2022-09-27T12:00:23;14.00;99.90
40848;DHT22;26570;50.962;5.340;2022-09-27T12:03:47;14.50;99.90
40848;DHT22;26570;50.962;5.340;2022-09-27T12:09:34;14.50;99.90
40848;DHT22;26570;50.962;5.340;2022-09-27T12:12:27;14.60;99.90
40848;DHT22;26570;50.962;5.340;2022-09-27T12:21:03;14.70;99.90
40848;DHT22;26570;50.962;5.340;2022-09-27T12:23:53;14.80;99.90
40848;DHT22;26570;50.962;5.340;2022-09-27T12:26:43;14.70;99.90
40848;DHT22;26570;50.962;5.340;2022-09-27T12:29:32;14.70;99.90
40848;DHT22;26570;50.962;5.340;2022-09-27T12:35:56;14.70;99.90
40848;DHT22;26570;50.962;5.340;2022-09-27T12:39:19;14.50;99.90
40848;DHT22;26570;50.962;5.340;2022-09-27T12:42:10;13.80;99.90
40848;DHT22;26570;50.962;5.340;2022-09-27T12:44:57;13.10;99.90
40848;DHT22;26570;50.962;5.340;2022-09-27T12:48:00;12.40;99.90
40848;DHT22;26570;50.962;5.340;2022-09-27T12:51:08;12.00;99.90
40848;DHT22;26570;50.962;5.340;2022-09-27T13:00:22;11.40;99.90
40848;DHT22;26570;50.962;5.340;2022-09-27T13:11:46;12.00;99.90
40848;DHT22;26570;50.962;5.340;2022-09-27T13:17:59;12.50;99.90
40848;DHT22;26570;50.962;5.340;2022-09-27T13:20:47;12.70;99.90
40848;DHT22;26570;50.962;5.340;2022-09-27T13:29:25;13.20;99.90
40848;DHT22;26570;50.962;5.340;2022-09-27T13:32:24;13.60;99.90
40848;DHT22;26570;50.962;5.340;2022-09-27T13:35:24;13.60;99.90
40848;DHT22;26570;50.962;5.340;2022-09-27T13:38:21;13.70;99.90
40848;DHT22;26570;50.962;5.340;2022-09-27T13:41:18;13.70;99.90
40848;DHT22;26570;50.962;5.340;2022-09-27T13:44:17;13.90;99.90
40848;DHT22;26570;50.962;5.340;2022-09-27T13:50:25;14.00;99.90
40848;DHT22;26570;50.962;5.340;2022-09-27T13:53:39;14.10;99.90
40848;DHT22;26570;50.962;5.340;2022-09-27T13:56:51;14.20;99.90
40848;DHT22;26570;50.962;5.340;2022-09-27T13:59:48;14.50;99.90
40848;DHT22;26570;50.962;5.340;2022-09-27T14:03:00;14.70;99.90
40848;DHT22;26570;50.962;5.340;2022-09-27T14:05:54;14.70;99.90
40848;DHT22;26570;50.962;5.340;2022-09-27T14:08:52;14.90;99.90
40848;DHT22;26570;50.962;5.340;2022-09-27T14:11:42;14.90;99.90
40848;DHT22;26570;50.962;5.340;2022-09-27T14:14:31;15.00;99.90
40848;DHT22;26570;50.962;5.340;2022-09-27T14:17:16;15.00;99.90
40848;DHT22;26570;50.962;5.340;2022-09-27T14:20:03;15.10;99.90
40848;DHT22;26570;50.962;5.340;2022-09-27T14:22:53;15.20;99.90
40848;DHT22;26570;50.962;5.340;2022-09-27T14:25:44;15.30;99.90
40848;DHT22;26570;50.962;5.340;2022-09-27T14:28:28;15.50;99.90
40848;DHT22;26570;50.962;5.340;2022-09-27T14:31:15;15.60;99.90
40848;DHT22;26570;50.962;5.340;2022-09-27T14:34:06;15.40;99.90
40848;DHT22;26570;50.962;5.340;2022-09-27T14:36:52;15.20;99.90
40848;DHT22;26570;50.962;5.340;2022-09-27T14:40:02;15.30;99.90
40848;DHT22;26570;50.962;5.340;2022-09-27T14:42:54;14.90;99.90
40848;DHT22;26570;50.962;5.340;2022-09-27T14:45:40;14.60;99.90
40848;DHT22;26570;50.962;5.340;2022-09-27T14:48:31;14.30;99.90
40848;DHT22;26570;50.962;5.340;2022-09-27T14:51:25;13.90;99.90
40848;DHT22;26570;50.962;5.340;2022-09-27T14:54:17;13.80;99.90
40848;DHT22;26570;50.962;5.340;2022-09-27T14:57:14;13.60;99.90
40848;DHT22;26570;50.962;5.340;2022-09-27T15:00:26;13.60;99.90
40848;DHT22;26570;50.962;5.340;2022-09-27T15:03:26;13.50;99.90
40848;DHT22;26570;50.962;5.340;2022-09-27T15:06:15;13.40;99.90
40848;DHT22;26570;50.962;5.340;2022-09-27T15:09:02;13.50;99.90
40848;DHT22;26570;50.962;5.340;2022-09-27T15:11:53;13.60;99.90
40848;DHT22;26570;50.962;5.340;2022-09-27T15:14:40;13.60;99.90
40848;DHT22;26570;50.962;5.340;2022-09-27T15:17:34;13.80;99.90
40848;DHT22;26570;50.962;5.340;2022-09-27T15:20:32;13.80;99.90
40848;DHT22;26570;50.962;5.340;2022-09-27T15:23:26;13.80;99.90
40848;DHT22;26570;50.962;5.340;2022-09-27T15:26:21;13.90;99.90
40848;DHT22;26570;50.962;5.340;2022-09-27T15:29:25;13.90;99.90
40848;DHT22;26570;50.962;5.340;2022-09-27T15:32:14;13.90;99.90
40848;DHT22;26570;50.962;5.340;2022-09-27T15:35:06;13.90;99.90
40848;DHT22;26570;50.962;5.340;2022-09-27T15:38:12;13.70;99.90
40848;DHT22;26570;50.962;5.340;2022-09-27T15:41:10;13.70;99.90
40848;DHT22;26570;50.962;5.340;2022-09-27T15:43:56;13.70;99.90
40848;DHT22;26570;50.962;5.340;2022-09-27T15:46:42;13.70;99.90
40848;DHT22;26570;50.962;5.340;2022-09-27T15:49:31;13.70;99.90
40848;DHT22;26570;50.962;5.340;2022-09-27T15:52:39;13.80;99.90
40848;DHT22;26570;50.962;5.340;2022-09-27T15:55:28;13.90;99.90
40848;DHT22;26570;50.962;5.340;2022-09-27T15:58:18;13.80;99.90
40848;DHT22;26570;50.962;5.340;2022-09-27T16:01:04;13.80;99.90
40848;DHT22;26570;50.962;5.340;2022-09-27T16:03:51;13.60;99.90
40848;DHT22;26570;50.962;5.340;2022-09-27T16:06:37;13.80;99.90
40848;DHT22;26570;50.962;5.340;2022-09-27T16:09:22;13.70;99.90
40848;DHT22;26570;50.962;5.340;2022-09-27T16:12:08;13.70;99.90
40848;DHT22;26570;50.962;5.340;2022-09-27T16:14:53;13.60;99.90
40848;DHT22;26570;50.962;5.340;2022-09-27T16:17:38;13.40;99.90
40848;DHT22;26570;50.962;5.340;2022-09-27T16:20:27;13.20;99.90
40848;DHT22;26570;50.962;5.340;2022-09-27T16:23:16;13.10;99.90
40848;DHT22;26570;50.962;5.340;2022-09-27T16:26:02;13.00;99.90
40848;DHT22;26570;50.962;5.340;2022-09-27T16:28:49;12.90;99.90
40848;DHT22;26570;50.962;5.340;2022-09-27T16:31:35;13.00;99.90
40848;DHT22;26570;50.962;5.340;2022-09-27T16:34:20;13.00;99.90
40848;DHT22;26570;50.962;5.340;2022-09-27T16:37:07;12.80;99.90
40848;DHT22;26570;50.962;5.340;2022-09-27T16:39:54;12.70;99.90
40848;DHT22;26570;50.962;5.340;2022-09-27T16:42:41;12.50;99.90
40848;DHT22;26570;50.962;5.340;2022-09-27T16:45:28;12.30;99.90
40848;DHT22;26570;50.962;5.340;2022-09-27T16:48:17;12.30;99.90
40848;DHT22;26570;50.962;5.340;2022-09-27T16:51:16;12.30;99.90
40848;DHT22;26570;50.962;5.340;2022-09-27T16:54:20;12.20;99.90
40848;DHT22;26570;50.962;5.340;2022-09-27T16:57:07;12.00;99.90
40848;DHT22;26570;50.962;5.340;2022-09-27T16:59:53;12.20;99.90
40848;DHT22;26570;50.962;5.340;2022-09-27T17:02:50;12.20;99.90
40848;DHT22;26570;50.962;5.340;2022-09-27T17:05:36;12.10;99.90
40848;DHT22;26570;50.962;5.340;2022-09-27T17:08:24;12.20;99.90
40848;DHT22;26570;50.962;5.340;2022-09-27T17:11:13;12.10;99.90
40848;DHT22;26570;50.962;5.340;2022-09-27T17:13:59;12.20;99.90
40848;DHT22;26570;50.962;5.340;2022-09-27T17:16:45;12.20;99.90
40848;DHT22;26570;50.962;5.340;2022-09-27T17:19:31;12.10;99.90
40848;DHT22;26570;50.962;5.340;2022-09-27T17:22:21;12.00;99.90
40848;DHT22;26570;50.962;5.340;2022-09-27T17:25:08;12.00;99.90
40848;DHT22;26570;50.962;5.340;2022-09-27T17:27:53;11.90;99.90
40848;DHT22;26570;50.962;5.340;2022-09-27T17:30:39;11.80;99.90
40848;DHT22;26570;50.962;5.340;2022-09-27T17:33:28;11.90;99.90
40848;DHT22;26570;50.962;5.340;2022-09-27T17:36:17;11.80;99.90
40848;DHT22;26570;50.962;5.340;2022-09-27T17:39:04;11.90;99.90
40848;DHT22;26570;50.962;5.340;2022-09-27T17:41:51;11.90;99.90
40848;DHT22;26570;50.962;5.340;2022-09-27T17:44:37;11.70;99.90
40848;DHT22;26570;50.962;5.340;2022-09-27T17:47:23;11.60;99.90
40848;DHT22;26570;50.962;5.340;2022-09-27T17:50:27;11.70;99.90
40848;DHT22;26570;50.962;5.340;2022-09-27T17:53:13;11.80;99.90
40848;DHT22;26570;50.962;5.340;2022-09-27T17:56:01;11.60;99.90
40848;DHT22;26570;50.962;5.340;2022-09-27T17:58:49;11.60;99.90
40848;DHT22;26570;50.962;5.340;2022-09-27T18:01:36;11.60;99.90
40848;DHT22;26570;50.962;5.340;2022-09-27T18:04:23;11.50;99.90
40848;DHT22;26570;50.962;5.340;2022-09-27T18:07:09;11.60;99.90
40848;DHT22;26570;50.962;5.340;2022-09-27T18:09:56;11.50;99.90
40848;DHT22;26570;50.962;5.340;2022-09-27T18:12:42;11.60;99.90
40848;DHT22;26570;50.962;5.340;2022-09-27T18:15:29;11.60;99.90
40848;DHT22;26570;50.962;5.340;2022-09-27T18:18:16;11.60;99.90
40848;DHT22;26570;50.962;5.340;2022-09-27T18:21:07;11.70;99.90
40848;DHT22;26570;50.962;5.340;2022-09-27T18:23:59;11.80;99.90
40848;DHT22;26570;50.962;5.340;2022-09-27T18:26:46;11.80;99.90
40848;DHT22;26570;50.962;5.340;2022-09-27T18:29:32;11.80;99.90
40848;DHT22;26570;50.962;5.340;2022-09-27T18:32:18;11.60;99.90
40848;DHT22;26570;50.962;5.340;2022-09-27T18:35:03;11.60;99.90
40848;DHT22;26570;50.962;5.340;2022-09-27T18:37:49;11.60;99.90
40848;DHT22;26570;50.962;5.340;2022-09-27T18:40:35;11.50;99.90
40848;DHT22;26570;50.962;5.340;2022-09-27T18:43:20;11.50;99.90
40848;DHT22;26570;50.962;5.340;2022-09-27T18:46:09;11.60;99.90
40848;DHT22;26570;50.962;5.340;2022-09-27T18:48:56;11.60;99.90
40848;DHT22;26570;50.962;5.340;2022-09-27T18:51:43;11.60;99.90
40848;DHT22;26570;50.962;5.340;2022-09-27T18:54:31;11.60;99.90
40848;DHT22;26570;50.962;5.340;2022-09-27T18:57:17;11.50;99.90
40848;DHT22;26570;50.962;5.340;2022-09-27T19:00:05;11.60;99.90
40848;DHT22;26570;50.962;5.340;2022-09-27T19:02:52;11.60;99.90
40848;DHT22;26570;50.962;5.340;2022-09-27T19:05:38;11.50;99.90
40848;DHT22;26570;50.962;5.340;2022-09-27T19:08:25;11.40;99.90
40848;DHT22;26570;50.962;5.340;2022-09-27T19:11:14;11.40;99.90
40848;DHT22;26570;50.962;5.340;2022-09-27T19:14:01;11.30;99.90
40848;DHT22;26570;50.962;5.340;2022-09-27T19:16:47;11.20;99.90
40848;DHT22;26570;50.962;5.340;2022-09-27T19:19:32;11.10;99.90
40848;DHT22;26570;50.962;5.340;2022-09-27T19:22:19;11.20;99.90
40848;DHT22;26570;50.962;5.340;2022-09-27T19:25:07;11.20;99.90
40848;DHT22;26570;50.962;5.340;2022-09-27T19:27:53;11.00;99.90
40848;DHT22;26570;50.962;5.340;2022-09-27T19:30:40;11.10;99.90
40848;DHT22;26570;50.962;5.340;2022-09-27T19:33:26;10.80;99.90
40848;DHT22;26570;50.962;5.340;2022-09-27T19:36:14;10.90;99.90
40848;DHT22;26570;50.962;5.340;2022-09-27T19:39:00;10.80;99.90
40848;DHT22;26570;50.962;5.340;2022-09-27T19:41:46;10.80;99.90
40848;DHT22;26570;50.962;5.340;2022-09-27T19:44:32;10.90;99.90
40848;DHT22;26570;50.962;5.340;2022-09-27T19:47:18;10.80;99.90
40848;DHT22;26570;50.962;5.340;2022-09-27T19:50:06;11.20;99.90
40848;DHT22;26570;50.962;5.340;2022-09-27T19:53:11;11.10;99.90
40848;DHT22;26570;50.962;5.340;2022-09-27T19:56:03;11.10;99.90
40848;DHT22;26570;50.962;5.340;2022-09-27T20:02:16;10.80;99.90
40848;DHT22;26570;50.962;5.340;2022-09-27T20:05:10;10.90;99.90
40848;DHT22;26570;50.962;5.340;2022-09-27T20:07:56;10.80;99.90
40848;DHT22;26570;50.962;5.340;2022-09-27T20:10:42;10.90;99.90
40848;DHT22;26570;50.962;5.340;2022-09-27T20:13:29;10.90;99.90
40848;DHT22;26570;50.962;5.340;2022-09-27T20:16:18;10.90;99.90
40848;DHT22;26570;50.962;5.340;2022-09-27T20:19:04;10.80;99.90